Time;durP1;ratioP1;P1;durP2;ratioP2;P2;SDS_P1;SDS_P2;PMS_P1;PMS_P2;Temp;Humidity;BMP_temperature;BMP_pressure;BME280_temperature;BME280_humidity;BME280_pressure;Samples;Min_cycle;Max_cycle;Signal;HPM_P1;HPM_P2
2024/03/13 00:01:53;;;;;;;20.08;9.70;;;;;;;1.19;90.50;100696.13;1674381;85;21111;-76
2024/03/13 00:04:23;;;;;;;17.87;8.50;;;;;;;1.21;90.70;100698.70;1684778;83;21499;-76
2024/03/13 00:06:52;;;;;;;16.57;9.20;;;;;;;1.22;90.86;100696.36;1674955;84;21091;-75
2024/03/13 00:09:20;;;;;;;16.48;8.53;;;;;;;1.25;91.01;100698.80;1694850;83;21158;-73
2024/03/13 00:11:49;;;;;;;19.45;9.73;;;;;;;1.24;91.10;100694.39;1680960;83;21023;-74
2024/03/13 00:14:18;;;;;;;19.48;9.30;;;;;;;1.22;91.13;100690.47;1683116;84;21052;-72
2024/03/13 00:16:47;;;;;;;21.68;9.98;;;;;;;1.21;91.31;100689.26;1674481;85;21440;-75
2024/03/13 00:19:16;;;;;;;18.67;9.35;;;;;;;1.18;91.42;100693.56;1684435;84;21130;-74
2024/03/13 00:21:45;;;;;;;19.75;9.73;;;;;;;1.16;91.54;100692.34;1694452;84;21109;-76
2024/03/13 00:24:16;;;;;;;17.32;9.48;;;;;;;1.18;91.63;100692.22;1696320;83;21487;-75
2024/03/13 00:26:50;;;;;;;22.27;9.78;;;;;;;1.20;91.69;100687.55;1687985;84;21553;-74
2024/03/13 00:29:17;;;;;;;25.45;12.07;;;;;;;1.22;91.73;100692.31;1688817;84;21098;-75
2024/03/13 00:31:46;;;;;;;22.87;12.03;;;;;;;1.22;91.66;100693.67;1686324;84;21491;-75
2024/03/13 00:34:15;;;;;;;26.97;13.53;;;;;;;1.24;91.64;100694.39;1674372;85;21123;-73
2024/03/13 00:36:45;;;;;;;26.93;14.28;;;;;;;1.23;91.57;100692.68;1683052;84;21222;-72
2024/03/13 00:39:14;;;;;;;27.40;14.35;;;;;;;1.26;91.50;100691.92;1674469;85;21111;-74
2024/03/13 00:41:45;;;;;;;29.57;15.13;;;;;;;1.27;91.19;100696.34;1680264;84;21149;-74
2024/03/13 00:44:14;;;;;;;27.87;14.75;;;;;;;1.28;91.02;100691.80;1684479;84;21066;-74
2024/03/13 00:46:43;;;;;;;26.25;13.80;;;;;;;1.28;90.79;100687.25;1684908;84;21047;-74
2024/03/13 00:49:12;;;;;;;28.42;13.62;;;;;;;1.30;90.66;100680.86;1687372;84;21094;-75
2024/03/13 00:51:41;;;;;;;24.15;12.30;;;;;;;1.32;90.33;100681.13;1685463;84;21200;-72
2024/03/13 00:54:11;;;;;;;22.95;11.83;;;;;;;1.32;90.02;100677.58;1661129;85;21031;-74
2024/03/13 00:56:41;;;;;;;23.75;12.73;;;;;;;1.31;89.79;100659.17;1681307;84;21495;-74
2024/03/13 00:59:12;;;;;;;20.23;11.88;;;;;;;1.35;89.69;100664.67;1682654;84;21101;-73
2024/03/13 01:01:41;;;;;;;22.50;13.10;;;;;;;1.38;89.45;100660.36;1684033;84;21099;-73
2024/03/13 01:04:11;;;;;;;27.73;13.53;;;;;;;1.41;89.17;100667.33;1652066;86;21107;-75
2024/03/13 01:06:40;;;;;;;23.47;11.97;;;;;;;1.44;88.99;100666.57;1696378;83;21098;-73
2024/03/13 01:09:15;;;;;;;27.80;13.58;;;;;;;1.48;88.79;100664.47;1677388;85;21111;-72
2024/03/13 01:11:46;;;;;;;22.67;12.37;;;;;;;1.49;88.65;100661.63;1674741;84;21095;-73
2024/03/13 01:14:19;;;;;;;23.38;11.90;;;;;;;1.50;88.38;100663.34;1680850;83;21039;-72
2024/03/13 01:16:53;;;;;;;21.20;11.45;;;;;;;1.51;88.08;100672.30;1702607;83;21018;-73
2024/03/13 01:19:22;;;;;;;22.65;12.58;;;;;;;1.52;87.69;100658.66;1674843;85;21051;-72
2024/03/13 01:22:03;;;;;;;22.93;11.95;;;;;;;1.52;87.32;100665.91;1679949;83;21497;-71
2024/03/13 01:24:26;;;;;;;23.22;11.68;;;;;;;1.52;86.85;100665.41;1686575;83;21536;-74
2024/03/13 01:26:55;;;;;;;21.27;10.68;;;;;;;1.49;86.30;100661.63;1678605;85;21044;-74
2024/03/13 01:29:25;;;;;;;17.65;9.05;;;;;;;1.46;85.74;100667.30;1678833;84;21099;-72
2024/03/13 01:31:57;;;;;;;21.65;9.73;;;;;;;1.45;85.64;100676.38;1680170;84;21560;-74
2024/03/13 01:34:25;;;;;;;19.48;9.73;;;;;;;1.44;85.72;100675.17;1683548;83;21082;-74
2024/03/13 01:39:41;;;;;;;19.80;9.88;;;;;;;1.41;86.19;100683.03;1680789;84;21055;-74
2024/03/13 01:56:26;;;;;;;;;;;;;;;0.93;89.80;100652.97;1690297;83;21087;-73
2024/03/13 01:59:20;;;;;;;16.67;8.63;;;;;;;0.96;90.17;100650.02;1691085;83;20307;-74
2024/03/13 02:04:26;;;;;;;18.52;8.68;;;;;;;0.99;90.50;100654.30;1690174;83;21042;-74
2024/03/13 02:06:55;;;;;;;17.30;8.73;;;;;;;0.97;90.56;100649.03;1687037;84;21024;-74
2024/03/13 02:09:25;;;;;;;18.12;8.63;;;;;;;0.97;90.62;100658.96;1678491;84;21549;-73
2024/03/13 02:11:54;;;;;;;17.12;9.00;;;;;;;0.98;90.81;100662.02;1674273;85;21079;-73
2024/03/13 02:14:22;;;;;;;15.30;8.30;;;;;;;1.02;90.88;100658.08;1681524;84;21059;-73
2024/03/13 02:16:54;;;;;;;16.17;8.80;;;;;;;1.05;90.77;100663.22;1674638;85;21165;-71
2024/03/13 02:19:23;;;;;;;20.62;8.93;;;;;;;1.05;90.80;100654.63;1682008;84;21095;-72
2024/03/13 02:21:57;;;;;;;15.80;8.23;;;;;;;1.05;90.74;100653.77;1686575;83;21087;-73
2024/03/13 02:24:25;;;;;;;20.40;9.30;;;;;;;1.05;90.81;100666.77;1687166;84;21517;-73
2024/03/13 02:26:54;;;;;;;21.82;9.73;;;;;;;1.04;90.74;100656.96;1678356;83;21098;-72
2024/03/13 02:29:23;;;;;;;18.70;8.13;;;;;;;1.05;90.73;100663.22;1693548;84;21023;-71
2024/03/13 02:31:53;;;;;;;15.28;8.63;;;;;;;1.07;90.65;100656.70;1696045;84;21089;-72
2024/03/13 02:34:23;;;;;;;19.75;8.48;;;;;;;1.10;90.59;100649.69;1688285;84;21075;-72
2024/03/13 02:36:54;;;;;;;19.70;8.35;;;;;;;1.14;90.38;100658.38;1694238;83;21462;-74
2024/03/13 02:39:23;;;;;;;19.10;8.78;;;;;;;1.12;89.96;100650.91;1686936;83;21064;-71
2024/03/13 02:41:53;;;;;;;19.15;9.65;;;;;;;1.10;89.72;100648.34;1682889;84;21141;-72
2024/03/13 02:44:22;;;;;;;17.60;9.00;;;;;;;1.12;89.62;100649.06;1699149;84;21079;-74
2024/03/13 02:46:51;;;;;;;20.00;9.00;;;;;;;1.19;89.46;100652.09;1674289;85;21099;-73
2024/03/13 02:49:20;;;;;;;20.65;9.78;;;;;;;1.19;89.04;100655.66;1680012;83;21074;-69
2024/03/13 02:51:49;;;;;;;20.77;9.33;;;;;;;1.18;88.70;100657.13;1680984;83;21059;-75
2024/03/13 02:54:17;;;;;;;17.57;9.30;;;;;;;1.16;88.58;100655.91;1690289;83;21027;-75
2024/03/13 02:56:48;;;;;;;16.62;8.65;;;;;;;1.17;88.47;100644.63;1678855;83;21083;-75
2024/03/13 02:59:20;;;;;;;18.82;9.20;;;;;;;1.19;88.10;100653.45;1679561;84;21475;-76
2024/03/13 03:01:48;;;;;;;20.52;9.60;;;;;;;1.19;87.73;100650.75;1677016;85;21064;-77
2024/03/13 03:04:18;;;;;;;21.10;9.70;;;;;;;1.17;87.56;100653.58;1674416;85;21075;-75
2024/03/13 03:06:47;;;;;;;20.00;9.80;;;;;;;1.19;87.50;100656.14;1674495;85;21043;-77
2024/03/13 03:09:16;;;;;;;19.12;9.38;;;;;;;1.21;87.43;100656.87;1674996;84;21131;-76
2024/03/13 03:11:45;;;;;;;19.40;9.88;;;;;;;1.21;87.29;100656.87;1678902;84;21048;-76
2024/03/13 03:14:14;;;;;;;21.05;10.08;;;;;;;1.18;87.16;100655.29;1680463;83;21035;-74
2024/03/13 03:16:42;;;;;;;23.75;10.03;;;;;;;1.19;87.08;100660.20;1688138;84;21022;-74
2024/03/13 03:19:11;;;;;;;23.15;10.10;;;;;;;1.21;87.02;100656.87;1709935;83;21030;-74
2024/03/13 03:21:41;;;;;;;24.02;11.03;;;;;;;1.22;86.91;100653.19;1675141;84;21638;-73
2024/03/13 03:24:10;;;;;;;21.07;9.95;;;;;;;1.21;86.80;100660.91;1678092;83;21143;-74
2024/03/13 03:26:40;;;;;;;20.37;10.85;;;;;;;1.21;86.72;100659.08;1687484;83;21087;-73
2024/03/13 03:29:08;;;;;;;17.57;9.38;;;;;;;1.21;86.74;100659.57;1684562;83;21083;-72
2024/03/13 03:31:37;;;;;;;22.85;10.90;;;;;;;1.22;86.71;100663.48;1682570;84;21496;-72
2024/03/13 03:34:06;;;;;;;22.50;9.85;;;;;;;1.19;86.27;100661.05;1677738;84;21589;-73
2024/03/13 03:36:35;;;;;;;20.45;10.72;;;;;;;1.13;86.14;100660.72;1685762;83;21091;-72
2024/03/13 03:39:07;;;;;;;23.35;10.98;;;;;;;1.11;85.91;100655.95;1678909;83;21118;-72
2024/03/13 03:41:36;;;;;;;20.20;9.98;;;;;;;1.09;85.49;100671.41;1674553;84;21576;-71
2024/03/13 03:44:05;;;;;;;24.80;10.58;;;;;;;1.08;85.34;100665.16;1688062;83;21106;-71
2024/03/13 03:46:34;;;;;;;23.30;11.20;;;;;;;1.08;85.34;100672.40;1686819;84;21110;-71
2024/03/13 03:49:05;;;;;;;23.32;10.55;;;;;;;1.07;85.50;100667.49;1688956;83;21464;-72
2024/03/13 03:51:34;;;;;;;24.23;10.90;;;;;;;1.07;85.62;100669.33;1680634;84;21047;-74
2024/03/13 03:54:05;;;;;;;27.67;11.03;;;;;;;1.07;85.98;100674.73;1680550;83;21507;-71
2024/03/13 03:56:38;;;;;;;20.40;10.53;;;;;;;1.03;86.10;100673.28;1674448;84;21505;-71
2024/03/13 03:59:09;;;;;;;25.50;11.55;;;;;;;0.95;86.44;100668.04;1638683;86;21091;-71
2024/03/13 04:01:38;;;;;;;21.50;10.63;;;;;;;0.95;86.74;100669.88;1682883;85;21060;-73
2024/03/13 04:04:07;;;;;;;21.55;10.38;;;;;;;0.94;87.13;100661.42;1678937;84;21483;-71
2024/03/13 04:06:35;;;;;;;25.15;10.85;;;;;;;0.90;87.36;100664.88;1685893;84;21136;-70
2024/03/13 04:09:14;;;;;;;21.60;10.50;;;;;;;0.85;87.75;100668.95;1674212;84;21126;-70
2024/03/13 04:11:35;;;;;;;22.55;11.05;;;;;;;0.81;88.11;100656.70;1683289;84;21059;-72
2024/03/13 04:14:03;;;;;;;22.98;11.55;;;;;;;0.80;88.43;100660.38;1685209;83;21061;-73
2024/03/13 04:16:32;;;;;;;24.47;11.75;;;;;;;0.78;88.78;100659.16;1680362;84;21023;-73
2024/03/13 04:19:02;;;;;;;23.25;11.43;;;;;;;0.76;89.09;100658.93;1685751;84;21058;-72
2024/03/13 04:21:31;;;;;;;24.57;12.78;;;;;;;0.76;89.47;100646.80;1674182;84;21019;-72
2024/03/13 04:24:00;;;;;;;25.90;12.45;;;;;;;0.75;89.71;100658.08;1682763;84;21098;-72
2024/03/13 04:26:30;;;;;;;27.90;13.28;;;;;;;0.77;89.96;100657.95;1677562;84;21035;-71
2024/03/13 04:28:59;;;;;;;27.25;14.10;;;;;;;0.81;90.24;100656.21;1684642;84;21095;-72
2024/03/13 04:31:28;;;;;;;28.73;14.10;;;;;;;0.85;90.36;100651.41;1683901;84;21097;-72
2024/03/13 04:33:57;;;;;;;32.05;15.88;;;;;;;0.85;90.60;100645.53;1679198;84;21059;-72
2024/03/13 04:36:26;;;;;;;29.18;14.20;;;;;;;0.84;90.62;100659.14;1674730;84;21700;-71
2024/03/13 04:38:56;;;;;;;26.70;14.25;;;;;;;0.82;90.74;100659.27;1674142;83;21568;-72
2024/03/13 04:41:24;;;;;;;23.18;12.88;;;;;;;0.82;90.94;100670.06;1679100;84;21055;-71
2024/03/13 04:43:54;;;;;;;24.27;13.13;;;;;;;0.84;91.04;100655.09;1688624;84;21062;-70
2024/03/13 04:46:23;;;;;;;26.65;12.98;;;;;;;0.88;91.27;100664.64;1681777;84;21617;-71
2024/03/13 04:48:53;;;;;;;26.77;14.28;;;;;;;0.88;91.30;100652.50;1676841;84;21070;-72
2024/03/13 04:51:22;;;;;;;24.52;13.30;;;;;;;0.89;91.29;100660.47;1684739;84;21539;-71
2024/03/13 04:53:52;;;;;;;28.32;13.78;;;;;;;0.93;91.44;100655.67;1679076;85;21083;-71
2024/03/13 04:56:21;;;;;;;23.85;12.95;;;;;;;0.92;91.39;100658.00;1680200;84;21443;-71
2024/03/13 04:58:51;;;;;;;26.17;13.98;;;;;;;0.91;91.51;100661.20;1689932;84;21111;-71
2024/03/13 05:01:20;;;;;;;29.98;14.03;;;;;;;0.88;91.59;100661.45;1680152;84;21566;-69
2024/03/13 05:03:49;;;;;;;28.90;14.18;;;;;;;0.87;91.78;100662.92;1680426;84;21101;-71
2024/03/13 05:06:21;;;;;;;30.65;16.52;;;;;;;0.89;91.88;100665.00;1678542;84;21138;-70
2024/03/13 05:08:50;;;;;;;27.15;15.48;;;;;;;0.93;92.08;100656.52;1687250;84;21550;-72
2024/03/13 05:11:19;;;;;;;28.35;15.58;;;;;;;0.97;92.04;100661.66;1685480;84;21047;-72
2024/03/13 05:13:48;;;;;;;30.12;16.12;;;;;;;0.99;92.05;100659.20;1677471;84;21071;-72
2024/03/13 05:16:18;;;;;;;35.60;17.12;;;;;;;1.01;92.03;100653.67;1677148;84;21126;-72
2024/03/13 05:18:48;;;;;;;29.65;15.58;;;;;;;1.05;92.02;100656.47;1681819;84;21110;-72
2024/03/13 05:21:18;;;;;;;29.98;15.00;;;;;;;1.06;92.04;100662.23;1684031;84;21118;-71
2024/03/13 05:23:47;;;;;;;28.70;14.98;;;;;;;1.07;91.99;100666.64;1682252;84;21491;-70
2024/03/13 05:26:16;;;;;;;28.32;13.72;;;;;;;1.04;91.99;100663.70;1676770;84;21167;-71
2024/03/13 05:28:46;;;;;;;24.70;13.80;;;;;;;1.06;92.07;100653.64;1684338;84;21051;-72
2024/03/13 05:31:15;;;;;;;27.93;14.00;;;;;;;1.05;92.11;100648.38;1689951;84;21186;-72
2024/03/13 05:33:44;;;;;;;25.02;13.38;;;;;;;1.05;92.20;100658.67;1676202;85;21082;-72
2024/03/13 05:36:13;;;;;;;23.38;12.23;;;;;;;1.09;92.28;100660.62;1681111;84;21086;-73
2024/03/13 05:38:41;;;;;;;25.82;13.98;;;;;;;1.11;92.23;100654.59;1686213;84;21074;-73
2024/03/13 05:41:10;;;;;;;22.98;12.20;;;;;;;1.13;92.23;100653.97;1688413;84;21508;-73
2024/03/13 05:43:40;;;;;;;21.17;11.25;;;;;;;1.17;92.30;100653.58;1685012;84;21494;-74
2024/03/13 05:46:10;;;;;;;23.67;12.73;;;;;;;1.20;92.20;100651.97;1685141;84;21071;-72
2024/03/13 05:48:39;;;;;;;26.15;11.78;;;;;;;1.20;92.13;100648.41;1644824;84;21166;-73
2024/03/13 05:51:08;;;;;;;23.40;11.22;;;;;;;1.21;92.21;100659.08;1678550;84;21055;-71
2024/03/13 05:53:37;;;;;;;23.83;12.50;;;;;;;1.19;92.11;100663.75;1674508;84;21024;-72
2024/03/13 05:56:06;;;;;;;24.02;12.03;;;;;;;1.17;92.21;100672.47;1674431;84;21090;-73
2024/03/13 05:58:37;;;;;;;26.00;13.32;;;;;;;1.15;92.33;100660.95;1684261;84;21074;-73
2024/03/13 06:01:08;;;;;;;25.48;12.85;;;;;;;1.19;92.46;100672.34;1692444;83;21096;-73
2024/03/13 06:03:36;;;;;;;27.85;14.63;;;;;;;1.23;92.57;100677.84;1683221;84;21117;-70
2024/03/13 06:06:05;;;;;;;30.75;19.52;;;;;;;1.23;92.64;100679.19;1676898;85;21146;-72
2024/03/13 06:08:34;;;;;;;32.83;16.55;;;;;;;1.25;92.66;100670.46;1676837;85;21436;-75
2024/03/13 06:11:05;;;;;;;27.05;14.75;;;;;;;1.23;92.71;100671.09;1694770;83;21022;-73
2024/03/13 06:13:35;;;;;;;28.10;15.55;;;;;;;1.25;92.79;100669.97;1678356;85;21487;-71
2024/03/13 06:16:06;;;;;;;27.67;15.72;;;;;;;1.27;92.88;100677.94;1692867;83;22029;-74
2024/03/13 06:18:35;;;;;;;35.17;16.35;;;;;;;1.28;92.80;100679.64;1673873;83;21069;-72
2024/03/13 06:21:08;;;;;;;33.10;17.20;;;;;;;1.26;92.79;100685.17;1679650;83;21114;-72
2024/03/13 06:23:37;;;;;;;29.48;16.27;;;;;;;1.24;92.80;100685.80;1674622;84;21114;-71
2024/03/13 06:26:07;;;;;;;30.62;15.72;;;;;;;1.25;92.88;100679.41;1678073;83;21093;-73
2024/03/13 06:31:24;;;;;;;;;;;;;;;1.21;92.96;100687.41;1684959;84;21023;-73
2024/03/13 06:33:53;;;;;;;31.97;15.90;;;;;;;1.25;93.20;100683.96;1681145;85;20202;-73
2024/03/13 06:36:23;;;;;;;27.75;15.15;;;;;;;1.28;93.25;100689.09;1679347;83;21479;-72
2024/03/13 06:38:52;;;;;;;31.73;15.60;;;;;;;1.26;93.09;100686.53;1682300;83;21055;-71
2024/03/13 06:41:22;;;;;;;30.55;16.12;;;;;;;1.26;93.08;100680.27;1685733;83;21071;-71
2024/03/13 06:43:51;;;;;;;29.37;16.02;;;;;;;1.28;93.06;100683.70;1681776;83;21088;-72
2024/03/13 06:46:20;;;;;;;31.33;15.83;;;;;;;1.31;93.00;100683.47;1694678;83;21019;-72
2024/03/13 06:48:51;;;;;;;27.75;16.42;;;;;;;1.33;92.84;100683.34;1675349;84;21063;-71
2024/03/13 06:51:21;;;;;;;27.65;15.40;;;;;;;1.32;92.66;100681.63;1655240;86;21083;-68
2024/03/13 06:53:51;;;;;;;26.15;14.55;;;;;;;1.33;92.48;100684.19;1686248;84;21122;-72
2024/03/13 06:56:22;;;;;;;33.45;16.12;;;;;;;1.34;92.35;100680.50;1677428;84;21024;-72
2024/03/13 06:58:52;;;;;;;27.87;14.90;;;;;;;1.35;92.08;100675.96;1674125;85;21087;-73
2024/03/13 07:01:21;;;;;;;31.10;15.13;;;;;;;1.38;92.06;100677.05;1682732;84;21080;-70
2024/03/13 07:03:52;;;;;;;29.65;14.60;;;;;;;1.40;91.84;100668.32;1683571;84;21054;-72
2024/03/13 07:06:21;;;;;;;28.32;14.45;;;;;;;1.40;91.74;100678.63;1682813;84;21083;-71
2024/03/13 07:08:50;;;;;;;28.45;15.43;;;;;;;1.40;91.72;100677.77;1685038;84;21020;-73
2024/03/13 07:11:20;;;;;;;30.68;16.27;;;;;;;1.41;91.47;100675.44;1685178;84;21070;-72
2024/03/13 07:13:50;;;;;;;30.65;15.38;;;;;;;1.42;91.29;100668.55;1675024;84;21159;-72
2024/03/13 07:16:20;;;;;;;29.80;15.85;;;;;;;1.42;91.10;100663.15;1685034;84;21050;-72
2024/03/13 07:18:50;;;;;;;30.50;15.10;;;;;;;1.47;91.06;100658.70;1678306;85;21059;-73
2024/03/13 07:21:21;;;;;;;32.73;16.55;;;;;;;1.53;91.00;100664.92;1682335;84;21031;-73
2024/03/13 07:23:50;;;;;;;34.75;16.75;;;;;;;1.61;90.98;100666.95;1666908;84;21337;-73
2024/03/13 07:26:19;;;;;;;35.23;18.02;;;;;;;1.66;90.91;100668.27;1687367;84;21174;-72
2024/03/13 07:28:49;;;;;;;29.90;15.90;;;;;;;1.72;91.05;100664.16;1680499;84;21040;-73
2024/03/13 07:31:20;;;;;;;32.80;16.45;;;;;;;1.79;91.08;100654.04;1679317;84;21139;-71
2024/03/13 07:33:54;;;;;;;28.50;15.38;;;;;;;1.84;91.00;100659.89;1679511;83;21081;-72
2024/03/13 07:36:24;;;;;;;29.45;15.28;;;;;;;1.91;90.88;100657.00;1686014;83;21126;-73
2024/03/13 07:38:59;;;;;;;26.97;14.80;;;;;;;1.95;90.56;100664.37;1680657;84;21532;-73
2024/03/13 07:41:27;;;;;;;24.35;13.30;;;;;;;2.00;90.31;100662.12;1674456;84;21047;-72
2024/03/13 07:43:56;;;;;;;24.27;12.68;;;;;;;2.03;89.94;100655.09;1635698;86;21504;-72
2024/03/13 07:46:26;;;;;;;22.35;11.97;;;;;;;2.05;89.71;100663.91;1679531;83;21091;-73
2024/03/13 07:48:56;;;;;;;24.07;11.90;;;;;;;2.10;89.57;100662.16;1674548;83;21069;-72
2024/03/13 07:51:25;;;;;;;20.95;11.43;;;;;;;2.11;88.80;100662.52;1686664;84;21127;-72
2024/03/13 07:53:54;;;;;;;22.20;12.55;;;;;;;2.10;88.83;100658.95;1681050;84;21095;-72
2024/03/13 07:56:23;;;;;;;24.25;12.58;;;;;;;2.13;88.77;100678.09;1694866;83;21516;-73
2024/03/13 07:58:53;;;;;;;26.42;12.68;;;;;;;2.13;88.41;100668.14;1689970;83;21079;-72
2024/03/13 08:01:23;;;;;;;22.27;11.83;;;;;;;2.16;88.37;100667.87;1677365;84;21700;-74
2024/03/13 08:03:53;;;;;;;23.85;12.50;;;;;;;2.25;88.54;100670.24;1677706;85;21138;-73
2024/03/13 08:06:22;;;;;;;25.17;12.35;;;;;;;2.32;88.37;100663.29;1676145;85;21060;-73
2024/03/13 08:09:09;;;;;;;;;;;;;;;2.39;88.12;100672.55;1676826;85;21067;-73
2024/03/13 08:12:00;;;;;;;26.10;13.15;;;;;;;2.45;87.96;100667.09;1698303;83;20498;-73
2024/03/13 08:14:47;;;;;;;27.20;13.40;;;;;;;2.49;87.80;100674.78;1696502;83;21071;-72
2024/03/13 08:17:36;;;;;;;25.12;13.22;;;;;;;2.55;87.78;100669.31;1676554;85;21459;-73
2024/03/13 08:20:25;;;;;;;26.73;13.48;;;;;;;2.59;87.66;100669.39;1679008;83;21507;-77
2024/03/13 08:23:15;;;;;;;25.27;14.18;;;;;;;2.64;87.25;100669.86;1681939;84;21105;-74
2024/03/13 08:26:04;;;;;;;28.20;15.45;;;;;;;2.66;86.97;100669.72;1679194;83;21084;-74
2024/03/13 08:28:51;;;;;;;29.25;15.10;;;;;;;2.71;86.92;100671.51;1686246;83;21054;-74
2024/03/13 08:31:41;;;;;;;30.15;14.60;;;;;;;2.74;86.82;100681.55;1707075;83;21054;-74
2024/03/13 08:34:31;;;;;;;30.70;14.73;;;;;;;2.77;86.91;100679.06;1694454;83;21048;-74
2024/03/13 08:37:18;;;;;;;28.47;13.78;;;;;;;2.79;86.81;100677.92;1701640;83;21463;-75
2024/03/13 08:40:11;;;;;;;;;;;;;;;2.81;86.77;100671.88;1685793;83;21083;-74
2024/03/13 08:42:58;;;;;;;30.08;14.58;;;;;;;2.79;86.47;100668.45;1690049;83;20160;-76
2024/03/13 08:45:47;;;;;;;30.05;14.70;;;;;;;2.75;85.92;100673.79;1672134;85;21584;-75
2024/03/13 08:48:35;;;;;;;27.48;13.13;;;;;;;2.72;85.85;100664.60;1677181;85;21115;-74
2024/03/13 08:51:22;;;;;;;19.60;10.58;;;;;;;2.67;85.61;100665.52;1687824;83;21094;-73
2024/03/13 08:54:11;;;;;;;27.98;14.47;;;;;;;2.70;85.60;100666.59;1686210;84;21087;-75
2024/03/13 08:57:01;;;;;;;31.85;14.58;;;;;;;2.73;85.65;100662.75;1676953;84;21047;-73
2024/03/13 08:59:49;;;;;;;24.77;13.40;;;;;;;2.79;85.71;100668.95;1658725;83;21019;-75
2024/03/13 09:02:38;;;;;;;23.42;13.75;;;;;;;2.86;85.69;100684.48;1678174;83;21551;-74
2024/03/13 09:05:29;;;;;;;33.63;15.45;;;;;;;2.96;86.18;100683.63;1665477;84;21151;-72
2024/03/13 09:08:19;;;;;;;29.65;14.38;;;;;;;3.05;85.63;100677.36;1643684;86;21087;-74
2024/03/13 09:10:53;;;;;;;29.35;14.28;;;;;;;3.11;85.39;100681.70;1656318;85;21106;-73
2024/03/13 09:13:25;;;;;;;31.02;15.15;;;;;;;3.16;84.96;100686.69;1657716;85;21063;-74
2024/03/13 09:16:04;;;;;;;28.02;14.90;;;;;;;3.20;84.57;100681.34;1677971;84;21062;-77
2024/03/13 09:18:37;;;;;;;24.95;13.88;;;;;;;3.26;84.46;100686.22;1676332;85;21166;-76
2024/03/13 09:21:12;;;;;;;26.10;14.47;;;;;;;3.33;84.25;100683.29;1684757;85;21025;-76
2024/03/13 09:23:46;;;;;;;29.85;16.30;;;;;;;3.37;83.70;100685.21;1671554;85;21498;-75
2024/03/13 09:26:20;;;;;;;23.55;12.90;;;;;;;3.38;83.05;100685.06;1644427;84;21034;-74
2024/03/13 09:28:53;;;;;;;22.15;10.82;;;;;;;3.38;82.57;100682.36;1688674;83;21082;-74
2024/03/13 09:31:26;;;;;;;21.80;11.88;;;;;;;3.44;82.14;100673.66;1683255;83;21111;-75
2024/03/13 09:33:58;;;;;;;24.95;12.35;;;;;;;3.44;81.60;100675.50;1687122;83;21165;-74
2024/03/13 09:36:31;;;;;;;26.05;12.88;;;;;;;3.41;80.93;100672.59;1698570;84;21517;-73
2024/03/13 09:39:09;;;;;;;25.15;13.40;;;;;;;3.39;80.80;100669.67;1686804;83;21110;-74
2024/03/13 09:41:39;;;;;;;20.25;10.45;;;;;;;3.37;80.70;100682.00;1679013;83;21491;-72
2024/03/13 09:44:11;;;;;;;29.72;13.03;;;;;;;3.38;80.53;100683.71;1677196;84;21127;-73
2024/03/13 09:46:48;;;;;;;28.87;13.65;;;;;;;3.33;79.81;100677.87;1687962;84;21576;-73
2024/03/13 09:49:22;;;;;;;26.37;14.35;;;;;;;3.30;79.85;100686.78;1686793;83;21099;-74
2024/03/13 09:51:51;;;;;;;26.35;13.88;;;;;;;3.31;80.24;100682.58;1673988;85;21573;-75
2024/03/13 09:54:20;;;;;;;31.93;16.17;;;;;;;3.31;80.26;100683.93;1647025;86;21107;-73
2024/03/13 09:56:51;;;;;;;26.52;13.75;;;;;;;3.31;79.91;100689.34;1685742;84;21066;-74
2024/03/13 09:59:21;;;;;;;26.85;14.38;;;;;;;3.32;79.68;100688.84;1675710;85;21560;-73
2024/03/13 10:01:50;;;;;;;24.72;13.18;;;;;;;3.34;79.37;100685.00;1685336;83;21490;-74
2024/03/13 10:04:24;;;;;;;23.55;11.25;;;;;;;3.37;79.64;100683.36;1673897;84;21139;-72
2024/03/13 10:06:53;;;;;;;23.30;10.78;;;;;;;3.44;79.27;100685.84;1685486;83;21044;-72
2024/03/13 10:09:23;;;;;;;23.38;10.13;;;;;;;3.47;78.29;100690.97;1656224;85;21040;-73
2024/03/13 10:11:53;;;;;;;20.72;11.10;;;;;;;3.51;78.07;100680.70;1660360;84;21778;-72
2024/03/13 10:14:23;;;;;;;20.27;10.75;;;;;;;3.56;77.97;100684.32;1648913;84;21057;-72
2024/03/13 10:16:54;;;;;;;22.02;10.80;;;;;;;3.59;77.24;100690.30;1646907;86;21092;-72
2024/03/13 10:19:27;;;;;;;24.77;13.80;;;;;;;3.61;77.05;100684.73;1661788;85;21105;-73
2024/03/13 10:21:56;;;;;;;23.10;12.60;;;;;;;3.61;76.66;100689.66;1663703;85;21116;-73
2024/03/13 10:24:28;;;;;;;23.90;13.55;;;;;;;3.62;76.71;100688.66;1624158;86;21064;-73
2024/03/13 10:26:58;;;;;;;25.45;13.83;;;;;;;3.67;76.62;100683.66;1625537;87;21057;-73
2024/03/13 10:29:27;;;;;;;24.23;13.22;;;;;;;3.68;76.11;100684.51;1654176;86;21109;-74
2024/03/13 10:31:58;;;;;;;29.48;13.72;;;;;;;3.67;75.72;100676.88;1649624;86;21089;-74
2024/03/13 10:34:28;;;;;;;29.82;12.68;;;;;;;3.65;75.45;100684.30;1654327;86;21549;-73
2024/03/13 10:36:58;;;;;;;25.60;13.58;;;;;;;3.66;75.18;100675.67;1658847;84;21052;-75
2024/03/13 10:39:35;;;;;;;26.27;13.60;;;;;;;3.67;75.61;100675.53;1657280;86;21138;-73
2024/03/13 10:42:07;;;;;;;24.67;13.75;;;;;;;3.71;75.49;100678.80;1653408;85;21064;-73
2024/03/13 10:44:36;;;;;;;25.25;13.72;;;;;;;3.73;75.11;100676.30;1663280;85;21143;-72
2024/03/13 10:47:08;;;;;;;23.55;13.22;;;;;;;3.73;74.28;100664.59;1676333;85;21347;-74
2024/03/13 10:49:37;;;;;;;25.10;13.28;;;;;;;3.72;73.33;100668.31;1657624;85;21112;-73
2024/03/13 10:52:11;;;;;;;26.68;13.95;;;;;;;3.67;73.24;100667.39;1653235;85;21165;-75
2024/03/13 10:54:37;;;;;;;25.25;12.73;;;;;;;3.67;73.39;100667.89;1635414;85;21134;-74
2024/03/13 10:57:07;;;;;;;23.10;11.35;;;;;;;3.72;73.87;100672.38;1651000;85;21068;-73
2024/03/13 10:59:41;;;;;;;20.25;9.75;;;;;;;3.76;73.81;100667.02;1649696;85;21593;-74
2024/03/13 11:02:09;;;;;;;17.20;9.30;;;;;;;3.79;73.56;100673.49;1658240;86;21084;-75
2024/03/13 11:04:38;;;;;;;18.98;9.35;;;;;;;3.82;73.78;100656.94;1637952;85;21120;-74
2024/03/13 11:07:16;;;;;;;16.20;8.90;;;;;;;3.86;73.90;100648.86;1657151;85;21475;-74
2024/03/13 11:09:45;;;;;;;18.35;9.53;;;;;;;3.89;73.63;100651.78;1659220;85;21494;-74
2024/03/13 11:12:26;;;;;;;18.92;10.10;;;;;;;3.94;73.46;100651.72;1647217;85;21151;-74
2024/03/13 11:14:51;;;;;;;23.73;11.40;;;;;;;3.95;73.38;100656.13;1660207;85;21082;-75
2024/03/13 11:17:21;;;;;;;24.32;11.95;;;;;;;3.94;73.11;100654.42;1655794;84;21171;-74
2024/03/13 11:19:58;;;;;;;25.17;12.75;;;;;;;3.94;73.31;100656.28;1659550;85;21062;-73
2024/03/13 11:22:28;;;;;;;;;;;;;;;3.98;73.70;100660.41;1654448;86;21169;-73
2024/03/13 11:25:00;;;;;;;20.82;9.78;;;;;;;3.97;73.51;100662.77;1658656;85;20199;-74
2024/03/13 11:27:30;;;;;;;18.40;9.63;;;;;;;3.94;72.31;100661.70;1657455;85;21106;-74
2024/03/13 11:29:59;;;;;;;24.70;10.98;;;;;;;3.90;72.58;100662.50;1656505;85;21105;-75
2024/03/13 11:32:30;;;;;;;20.20;10.45;;;;;;;3.91;72.32;100651.16;1650449;85;21538;-74
2024/03/13 11:34:59;;;;;;;22.85;10.98;;;;;;;3.96;73.44;100650.20;1654078;85;21114;-74
2024/03/13 11:37:29;;;;;;;17.23;8.75;;;;;;;3.98;73.31;100646.84;1657717;86;21063;-75
2024/03/13 11:39:59;;;;;;;16.97;9.93;;;;;;;4.00;73.42;100643.48;1651819;86;21098;-74
2024/03/13 11:42:30;;;;;;;15.08;8.23;;;;;;;3.99;72.78;100641.28;1659814;86;21114;-75
2024/03/13 11:45:16;;;;;;;19.67;9.35;;;;;;;4.00;72.82;100642.98;1657865;85;21097;-72
2024/03/13 11:47:55;;;;;;;18.85;9.45;;;;;;;4.00;72.94;100647.05;1649958;86;21067;-74
2024/03/13 11:50:21;;;;;;;16.82;9.35;;;;;;;4.01;72.79;100648.76;1646120;86;21086;-72
2024/03/13 11:53:02;;;;;;;25.85;9.93;;;;;;;4.03;72.87;100645.90;1652895;85;21459;-74
2024/03/13 11:55:31;;;;;;;18.55;9.30;;;;;;;4.07;73.30;100641.38;1651986;85;21098;-74
2024/03/13 11:58:19;;;;;;;13.98;7.62;;;;;;;4.12;73.02;100643.14;1646491;86;21082;-74
2024/03/13 12:00:50;;;;;;;14.35;7.50;;;;;;;4.14;72.36;100645.70;1625409;88;21094;-77
2024/03/13 12:03:20;;;;;;;16.62;7.58;;;;;;;4.13;71.85;100642.64;1655645;84;21095;-75